createdAt,value
2022-09-11T00:00:54.193Z,24.83
2022-09-11T00:03:18.328Z,25.90
2022-09-11T00:05:43.437Z,24.98
2022-09-11T00:08:07.765Z,23.90
2022-09-11T00:10:32.349Z,24.73
2022-09-11T00:12:58.210Z,28.08
2022-09-11T00:15:21.773Z,24.52
2022-09-11T00:17:45.158Z,24.83
2022-09-11T00:20:09.775Z,22.73
2022-09-11T00:22:33.224Z,23.35
2022-09-11T00:24:57.767Z,27.45
2022-09-11T00:27:21.156Z,24.88
2022-09-11T00:29:46.061Z,21.33
2022-09-11T00:32:10.970Z,24.48
2022-09-11T00:34:34.820Z,23.90
2022-09-11T00:36:58.750Z,25.27
2022-09-11T00:39:22.374Z,23.58
2022-09-11T00:41:49.272Z,24.08
2022-09-11T00:45:01.500Z,22.85
2022-09-11T00:47:24.968Z,24.15
2022-09-11T00:49:52.186Z,24.27
2022-09-11T00:52:22.228Z,25.25
2022-09-11T00:54:50.436Z,27.30
2022-09-11T00:57:14.621Z,26.25
2022-09-11T00:59:43.770Z,28.05
2022-09-11T01:02:13.768Z,27.02
2022-09-11T01:04:37.856Z,25.98
2022-09-11T01:07:02.159Z,28.20
2022-09-11T01:09:27.266Z,28.55
2022-09-11T01:12:01.622Z,25.40
2022-09-11T01:14:41.484Z,27.85
2022-09-11T01:17:20.931Z,28.88
2022-09-11T01:20:14.654Z,31.35
2022-09-11T01:22:59.272Z,31.63
2022-09-11T01:25:33.400Z,28.55
2022-09-11T01:28:01.074Z,33.63
2022-09-11T01:30:29.991Z,35.25
2022-09-11T01:33:15.545Z,46.92
2022-09-11T01:36:04.325Z,34.13
2022-09-11T01:38:35.130Z,31.98
2022-09-11T01:41:07.872Z,35.65
2022-09-11T01:43:38.227Z,37.72
2022-09-11T01:46:06.624Z,37.15
2022-09-11T01:48:38.982Z,41.15
2022-09-11T01:51:03.935Z,34.17
2022-09-11T01:53:35.168Z,34.40
2022-09-11T01:56:08.121Z,33.53
2022-09-11T01:58:36.601Z,31.08
2022-09-11T02:01:07.693Z,34.17
2022-09-11T02:03:37.954Z,35.00
2022-09-11T02:06:09.494Z,34.72
2022-09-11T02:08:41.448Z,32.05
2022-09-11T02:11:09.483Z,28.85
2022-09-11T02:13:38.637Z,30.25
2022-09-11T02:16:11.657Z,33.00
2022-09-11T02:18:44.533Z,31.77
2022-09-11T02:21:08.004Z,36.25
2022-09-11T02:23:31.568Z,38.40
2022-09-11T02:25:55.071Z,32.13
2022-09-11T02:28:18.828Z,32.97
2022-09-11T02:30:44.650Z,33.05
2022-09-11T02:33:27.777Z,37.40
2022-09-11T02:35:55.993Z,37.90
2022-09-11T02:38:29.773Z,31.63
2022-09-11T02:41:03.063Z,43.20
2022-09-11T02:43:51.523Z,42.10
2022-09-11T02:46:40.270Z,38.83
2022-09-11T02:49:14.828Z,42.38
2022-09-11T02:51:49.324Z,37.35
2022-09-11T02:54:25.865Z,43.53
2022-09-11T02:56:56.883Z,45.30
2022-09-11T02:59:25.631Z,45.97
2022-09-11T03:01:53.674Z,46.65
2022-09-11T03:04:20.401Z,40.63
2022-09-11T03:06:45.056Z,40.55
2022-09-11T03:09:11.222Z,43.72
2022-09-11T03:11:35.953Z,45.47
2022-09-11T03:13:59.471Z,42.78
2022-09-11T03:16:23.418Z,47.17
2022-09-11T03:18:49.003Z,50.28
2022-09-11T03:21:12.971Z,50.90
2022-09-11T03:23:36.854Z,49.05
2022-09-11T03:26:00.438Z,49.05
2022-09-11T03:28:24.280Z,51.05
2022-09-11T03:30:49.746Z,52.70
2022-09-11T03:33:14.137Z,54.33
2022-09-11T03:35:38.959Z,54.25
2022-09-11T03:38:02.837Z,53.83
2022-09-11T03:40:27.449Z,59.05
2022-09-11T03:42:50.904Z,61.53
2022-09-11T03:45:15.343Z,58.33
2022-09-11T03:47:40.275Z,60.00
2022-09-11T03:50:04.316Z,61.38
2022-09-11T03:52:31.322Z,100.13
2022-09-11T03:54:54.891Z,62.85
2022-09-11T03:57:18.537Z,55.60
2022-09-11T03:59:42.060Z,66.70
2022-09-11T04:02:06.751Z,63.85
2022-09-11T04:04:30.329Z,62.13
2022-09-11T04:06:53.896Z,66.13
2022-09-11T04:09:19.106Z,62.10
2022-09-11T04:11:45.053Z,57.15
2022-09-11T04:14:17.934Z,60.92
2022-09-11T04:16:41.868Z,65.00
2022-09-11T04:19:05.874Z,69.93
2022-09-11T04:21:30.452Z,60.08
2022-09-11T04:23:56.551Z,57.78
2022-09-11T04:26:26.273Z,72.68
2022-09-11T04:28:55.236Z,90.65
2022-09-11T04:31:20.499Z,72.50
2022-09-11T04:33:45.084Z,68.05
2022-09-11T04:36:10.342Z,61.50
2022-09-11T04:38:34.546Z,61.25
2022-09-11T04:41:02.373Z,76.13
2022-09-11T04:43:27.609Z,106.45
2022-09-11T04:45:54.185Z,60.25
2022-09-11T04:48:18.135Z,57.95
2022-09-11T04:50:41.663Z,54.35
2022-09-11T04:53:14.365Z,55.30
2022-09-11T04:55:38.708Z,54.08
2022-09-11T04:58:02.624Z,56.85
2022-09-11T05:00:27.676Z,56.40
2022-09-11T05:02:54.638Z,49.55
2022-09-11T05:05:18.322Z,56.17
2022-09-11T05:07:41.833Z,58.75
2022-09-11T05:10:08.333Z,74.07
2022-09-11T05:12:32.730Z,54.38
2022-09-11T05:14:56.220Z,58.03
2022-09-11T05:17:21.339Z,66.78
2022-09-11T05:19:44.853Z,86.88
2022-09-11T05:22:08.953Z,83.93
2022-09-11T05:24:34.614Z,119.32
2022-09-11T05:26:58.907Z,137.13
2022-09-11T05:29:23.443Z,72.60
2022-09-11T05:31:58.867Z,64.18
2022-09-11T05:34:28.735Z,88.70
2022-09-11T05:36:53.211Z,63.45
2022-09-11T05:39:16.710Z,85.03
2022-09-11T05:41:41.168Z,64.05
2022-09-11T05:44:06.102Z,57.55
2022-09-11T05:46:31.345Z,57.20
2022-09-11T05:48:59.080Z,59.33
2022-09-11T05:51:25.420Z,108.78
2022-09-11T05:53:50.460Z,68.95
2022-09-11T05:56:16.892Z,54.80
2022-09-11T05:58:41.338Z,62.45
2022-09-11T06:01:07.321Z,60.60
2022-09-11T06:03:33.298Z,61.65
2022-09-11T06:06:01.969Z,59.05
2022-09-11T06:08:27.528Z,60.72
2022-09-11T06:10:54.436Z,60.42
2022-09-11T06:13:18.849Z,57.17
2022-09-11T06:15:47.266Z,133.77
2022-09-11T06:18:11.654Z,58.80
2022-09-11T06:20:35.131Z,62.20
2022-09-11T06:23:00.920Z,115.82
2022-09-11T06:25:26.003Z,69.45
2022-09-11T06:27:49.932Z,75.60
2022-09-11T06:30:15.139Z,82.82
2022-09-11T06:32:40.141Z,58.60
2022-09-11T06:35:04.160Z,53.33
2022-09-11T06:37:28.049Z,105.43
2022-09-11T06:39:51.936Z,66.68
2022-09-11T06:42:23.502Z,58.70
2022-09-11T06:44:50.596Z,116.13
2022-09-11T06:47:14.525Z,74.00
2022-09-11T06:49:38.063Z,56.70
2022-09-11T06:52:26.466Z,50.42
2022-09-11T06:55:01.876Z,51.10
2022-09-11T06:57:29.391Z,51.03
2022-09-11T06:59:52.875Z,49.38
2022-09-11T07:02:17.387Z,58.92
2022-09-11T07:04:42.924Z,55.22
2022-09-11T07:07:07.418Z,49.45
2022-09-11T07:09:32.542Z,50.88
2022-09-11T07:11:57.098Z,47.90
2022-09-11T07:14:24.462Z,48.45
2022-09-11T07:16:55.971Z,50.88
2022-09-11T07:19:19.895Z,46.25
2022-09-11T07:21:43.527Z,57.55
2022-09-11T07:24:08.544Z,50.28
2022-09-11T07:26:36.803Z,48.55
2022-09-11T07:29:06.407Z,53.67
2022-09-11T07:31:34.514Z,51.67
2022-09-11T07:33:58.532Z,77.95
2022-09-11T07:36:25.173Z,53.60
2022-09-11T07:38:52.154Z,51.08
2022-09-11T07:41:16.785Z,56.45
2022-09-11T07:43:42.789Z,52.97
2022-09-11T07:46:08.330Z,51.90
2022-09-11T07:48:34.126Z,50.22
2022-09-11T07:51:03.518Z,56.22
2022-09-11T07:53:28.376Z,52.90
2022-09-11T07:55:52.666Z,46.80
2022-09-11T07:58:16.098Z,47.03
2022-09-11T08:00:40.869Z,49.45
2022-09-11T08:03:11.845Z,47.38
2022-09-11T08:05:36.966Z,48.45
2022-09-11T08:08:00.949Z,47.13
2022-09-11T08:10:27.908Z,47.53
2022-09-11T08:12:54.789Z,49.88
2022-09-11T08:15:21.877Z,51.20
2022-09-11T08:17:45.792Z,49.75
2022-09-11T08:20:10.759Z,47.10
2022-09-11T08:22:36.399Z,50.90
2022-09-11T08:24:59.888Z,53.58
2022-09-11T08:27:23.480Z,49.38
2022-09-11T08:29:47.366Z,45.90
2022-09-11T08:32:11.136Z,50.10
2022-09-11T08:34:38.369Z,50.42
2022-09-11T08:37:01.946Z,52.28
2022-09-11T08:39:30.504Z,49.78
2022-09-11T08:42:02.595Z,56.88
2022-09-11T08:44:29.935Z,53.30
2022-09-11T08:47:16.579Z,55.97
2022-09-11T08:49:43.397Z,50.83
2022-09-11T08:52:07.939Z,45.40
2022-09-11T08:54:41.187Z,50.38
2022-09-11T08:57:18.963Z,53.33
2022-09-11T09:00:02.177Z,52.35
2022-09-11T09:02:51.684Z,49.65
2022-09-11T09:05:28.395Z,48.97
2022-09-11T09:08:08.986Z,51.33
2022-09-11T09:10:50.191Z,48.65
2022-09-11T09:13:33.917Z,50.00
2022-09-11T09:16:07.056Z,50.88
2022-09-11T09:18:36.130Z,53.60
2022-09-11T09:21:04.726Z,48.33
2022-09-11T09:23:37.442Z,47.53
2022-09-11T09:26:02.779Z,47.40
2022-09-11T09:28:35.167Z,49.20
2022-09-11T09:31:02.167Z,53.72
2022-09-11T09:33:35.093Z,48.63
2022-09-11T09:36:15.042Z,49.72
2022-09-11T09:38:39.547Z,46.88
2022-09-11T09:41:26.945Z,48.45
2022-09-11T09:43:59.473Z,51.25
2022-09-11T09:46:32.570Z,45.95
2022-09-11T09:48:57.100Z,46.42
2022-09-11T09:51:20.641Z,44.60
2022-09-11T09:53:47.855Z,47.65
2022-09-11T09:56:17.435Z,48.20
2022-09-11T09:58:50.506Z,50.53
2022-09-11T10:01:45.919Z,47.35
2022-09-11T10:04:12.699Z,47.35
2022-09-11T10:06:36.198Z,46.15
2022-09-11T10:09:03.252Z,44.90
2022-09-11T10:11:31.313Z,40.58
2022-09-11T10:13:57.313Z,41.80
2022-09-11T10:16:23.311Z,40.70
2022-09-11T10:18:47.248Z,41.55
2022-09-11T10:21:34.037Z,41.65
2022-09-11T10:24:00.079Z,38.53
2022-09-11T10:26:31.016Z,43.90
2022-09-11T10:28:56.242Z,39.55
2022-09-11T10:31:20.629Z,42.80
2022-09-11T10:33:53.439Z,41.70
2022-09-11T10:36:24.747Z,40.50
2022-09-11T10:38:49.581Z,41.83
2022-09-11T10:41:19.613Z,38.78
2022-09-11T10:43:51.279Z,38.53
2022-09-11T10:46:39.224Z,39.78
2022-09-11T10:49:17.631Z,36.03
2022-09-11T10:51:47.301Z,41.03
2022-09-11T10:54:32.691Z,40.40
2022-09-11T10:57:05.414Z,36.17
2022-09-11T10:59:41.424Z,38.65
2022-09-11T11:02:14.786Z,37.00
2022-09-11T11:04:38.437Z,33.47
2022-09-11T11:07:14.008Z,39.75
2022-09-11T11:09:56.793Z,35.22
2022-09-11T11:12:50.376Z,36.10
2022-09-11T11:15:48.284Z,33.72
2022-09-11T11:18:26.853Z,32.50
2022-09-11T11:21:00.672Z,33.38
2022-09-11T11:23:52.788Z,32.88
2022-09-11T11:26:36.700Z,35.70
2022-09-11T11:29:35.489Z,33.67
2022-09-11T11:32:17.323Z,33.67
2022-09-11T11:35:04.223Z,33.30
2022-09-11T11:37:34.194Z,31.88
2022-09-11T11:40:05.014Z,29.55
2022-09-11T11:42:32.619Z,32.88
2022-09-11T11:45:01.115Z,26.95
2022-09-11T11:47:32.669Z,29.63
2022-09-11T11:50:04.821Z,26.73
2022-09-11T11:52:42.430Z,26.83
2022-09-11T11:55:16.902Z,30.42
2022-09-11T11:57:46.942Z,27.95
2022-09-11T12:00:14.748Z,29.63
2022-09-11T12:02:49.512Z,28.25
2022-09-11T12:05:18.341Z,29.73
2022-09-11T12:07:42.395Z,27.50
2022-09-11T12:10:09.873Z,28.27
2022-09-11T12:12:36.695Z,27.02
2022-09-11T12:15:07.144Z,26.67
2022-09-11T12:17:33.713Z,28.55
2022-09-11T12:20:33.867Z,27.75
2022-09-11T12:22:58.345Z,29.55
2022-09-11T12:26:06.167Z,25.92
2022-09-11T12:28:29.745Z,24.80
2022-09-11T12:31:06.273Z,26.08
2022-09-11T12:33:57.309Z,27.63
2022-09-11T12:36:33.864Z,23.65
2022-09-11T12:39:01.631Z,25.52
2022-09-11T12:41:30.145Z,23.70
2022-09-11T12:43:54.673Z,24.33
2022-09-11T12:47:08.372Z,23.75
2022-09-11T12:49:34.891Z,24.25
2022-09-11T12:52:02.146Z,22.15
2022-09-11T12:54:29.517Z,22.80
2022-09-11T12:57:01.001Z,24.70
2022-09-11T12:59:30.119Z,22.48
2022-09-11T13:01:54.859Z,24.08
2022-09-11T13:04:25.234Z,22.20
2022-09-11T13:06:54.851Z,17.77
2022-09-11T13:09:25.815Z,20.75
2022-09-11T13:11:52.829Z,22.08
2022-09-11T13:14:52.334Z,20.42
2022-09-11T13:17:25.949Z,20.50
2022-09-11T13:19:51.611Z,22.00
2022-09-11T13:22:27.758Z,20.38
2022-09-11T13:25:12.820Z,17.27
2022-09-11T13:27:39.146Z,15.13
2022-09-11T13:30:03.446Z,18.40
2022-09-11T13:32:27.053Z,14.73
2022-09-11T13:35:01.887Z,15.32
2022-09-11T13:37:37.242Z,14.18
2022-09-11T13:40:01.994Z,14.65
2022-09-11T13:42:28.456Z,15.23
2022-09-11T13:44:54.866Z,17.10
2022-09-11T13:47:21.248Z,13.45
2022-09-11T13:49:45.518Z,13.23
2022-09-11T13:52:13.617Z,12.43
2022-09-11T13:54:41.755Z,14.77
2022-09-11T13:57:24.688Z,13.35
2022-09-11T13:59:54.178Z,13.38
2022-09-11T14:02:41.969Z,12.85
2022-09-11T14:05:14.780Z,12.30
2022-09-11T14:07:49.307Z,13.95
2022-09-11T14:10:22.842Z,13.00
2022-09-11T14:12:53.556Z,13.57
2022-09-11T14:15:41.089Z,12.65
2022-09-11T14:18:06.808Z,14.45
2022-09-11T14:20:31.174Z,16.67
2022-09-11T14:22:56.428Z,18.20
2022-09-11T14:25:23.458Z,15.98
2022-09-11T14:27:48.361Z,15.48
2022-09-11T14:30:37.362Z,16.10
2022-09-11T14:33:25.762Z,15.30
2022-09-11T14:35:50.311Z,17.77
2022-09-11T14:38:15.893Z,14.85
2022-09-11T14:40:46.075Z,14.15
2022-09-11T14:43:11.920Z,13.35
2022-09-11T14:45:37.226Z,13.70
2022-09-11T14:48:01.305Z,15.05
2022-09-11T14:50:25.211Z,13.98
2022-09-11T14:52:48.876Z,13.23
2022-09-11T14:55:15.850Z,13.73
2022-09-11T14:57:39.357Z,12.57
2022-09-11T15:00:03.669Z,12.95
2022-09-11T15:02:30.259Z,15.77
2022-09-11T15:04:56.530Z,14.93
2022-09-11T15:07:20.591Z,15.45
2022-09-11T15:09:45.151Z,13.57
2022-09-11T15:12:10.740Z,14.00
2022-09-11T15:14:55.054Z,11.45
2022-09-11T15:17:20.272Z,13.77
2022-09-11T15:19:49.545Z,14.35
2022-09-11T15:22:13.440Z,13.57
2022-09-11T15:24:36.848Z,12.05
2022-09-11T15:27:01.110Z,13.77
2022-09-11T15:29:30.769Z,16.02
2022-09-11T15:31:55.000Z,10.90
2022-09-11T15:34:18.990Z,11.18
2022-09-11T15:36:44.407Z,12.00
2022-09-11T15:39:08.867Z,12.43
2022-09-11T15:41:32.422Z,12.25
2022-09-11T15:43:56.506Z,12.32
2022-09-11T15:46:22.693Z,13.45
2022-09-11T15:48:46.959Z,13.57
2022-09-11T15:51:15.072Z,13.00
2022-09-11T15:53:39.978Z,13.90
2022-09-11T15:56:06.377Z,13.90
2022-09-11T15:58:30.178Z,11.48
2022-09-11T16:00:54.302Z,12.30
2022-09-11T16:03:17.912Z,13.23
2022-09-11T16:05:42.314Z,13.73
2022-09-11T16:08:05.921Z,11.55
2022-09-11T16:10:31.203Z,12.95
2022-09-11T16:12:58.841Z,11.75
2022-09-11T16:15:22.576Z,15.98
2022-09-11T16:17:46.102Z,12.25
2022-09-11T16:20:11.436Z,13.63
2022-09-11T16:22:35.093Z,14.75
2022-09-11T16:25:00.163Z,15.43
2022-09-11T16:27:25.875Z,12.25
2022-09-11T16:32:33.267Z,11.68
2022-09-11T16:34:57.523Z,11.63
2022-09-11T16:37:21.199Z,11.02
2022-09-11T16:39:47.178Z,13.18
2022-09-11T16:42:11.509Z,15.43
2022-09-11T16:44:36.465Z,16.20
2022-09-11T16:47:00.101Z,13.73
2022-09-11T16:49:24.057Z,13.20
2022-09-11T16:51:48.739Z,12.07
2022-09-11T16:54:13.172Z,13.68
2022-09-11T16:56:36.642Z,11.90
2022-09-11T16:59:00.150Z,12.48
2022-09-11T17:01:27.823Z,11.32
2022-09-11T17:03:55.591Z,11.43
2022-09-11T17:06:21.034Z,13.93
2022-09-11T17:08:45.216Z,12.38
2022-09-11T17:11:13.863Z,13.25
2022-09-11T17:13:38.213Z,13.38
2022-09-11T17:16:03.837Z,14.07
2022-09-11T17:18:29.124Z,13.40
2022-09-11T17:20:58.933Z,10.88
2022-09-11T17:23:22.433Z,11.93
2022-09-11T17:25:45.870Z,10.48
2022-09-11T17:28:10.162Z,11.65
2022-09-11T17:30:34.373Z,14.65
2022-09-11T17:32:58.192Z,14.07
2022-09-11T17:35:23.236Z,12.18
2022-09-11T17:37:47.065Z,11.63
2022-09-11T17:40:12.582Z,13.27
2022-09-11T17:42:36.504Z,11.68
2022-09-11T17:45:01.484Z,13.63
2022-09-11T17:47:25.592Z,11.20
2022-09-11T17:49:50.198Z,13.68
2022-09-11T17:52:15.589Z,14.77
2022-09-11T17:54:39.127Z,12.40
2022-09-11T17:57:02.998Z,20.38
2022-09-11T17:59:26.648Z,18.70
2022-09-11T18:01:50.159Z,18.92
2022-09-11T18:04:13.722Z,18.40
2022-09-11T18:06:39.014Z,17.88
2022-09-11T18:09:11.989Z,21.50
2022-09-11T18:11:35.617Z,16.60
2022-09-11T18:14:01.127Z,16.95
2022-09-11T18:16:25.101Z,16.17
2022-09-11T18:18:49.484Z,15.02
2022-09-11T18:21:13.583Z,14.25
2022-09-11T18:23:39.737Z,16.02
2022-09-11T18:26:04.987Z,12.15
2022-09-11T18:28:29.835Z,11.05
2022-09-11T18:30:53.431Z,13.25
2022-09-11T18:33:17.613Z,10.65
2022-09-11T18:35:41.176Z,11.02
2022-09-11T18:38:04.969Z,10.23
2022-09-11T18:40:28.726Z,9.48
2022-09-11T18:42:54.648Z,10.73
2022-09-11T18:45:18.347Z,11.85
2022-09-11T18:47:43.165Z,11.68
2022-09-11T18:50:07.977Z,11.50
2022-09-11T18:52:31.514Z,11.60
2022-09-11T18:54:55.009Z,12.57
2022-09-11T18:57:19.032Z,13.35
2022-09-11T18:59:44.235Z,12.45
2022-09-11T19:02:08.513Z,12.68
2022-09-11T19:04:32.225Z,12.65
2022-09-11T19:06:55.681Z,13.40
2022-09-11T19:09:19.449Z,14.68
2022-09-11T19:11:43.441Z,14.10
2022-09-11T19:14:09.674Z,13.68
2022-09-11T19:16:35.340Z,14.48
2022-09-11T19:19:00.270Z,16.00
2022-09-11T19:21:26.428Z,13.60
2022-09-11T19:23:53.146Z,15.32
2022-09-11T19:26:19.619Z,14.43
2022-09-11T19:28:45.199Z,14.15
2022-09-11T19:31:10.218Z,13.75
2022-09-11T19:33:37.206Z,11.73
2022-09-11T19:36:04.424Z,12.18
2022-09-11T19:38:28.510Z,12.90
2022-09-11T19:40:52.155Z,13.05
2022-09-11T19:43:15.839Z,12.25
2022-09-11T19:45:39.750Z,11.23
2022-09-11T19:48:04.613Z,12.13
2022-09-11T19:50:33.835Z,13.50
2022-09-11T19:52:57.724Z,11.10
2022-09-11T19:55:21.263Z,14.35
2022-09-11T19:57:44.746Z,17.50
2022-09-11T20:00:10.529Z,19.10
2022-09-11T20:02:34.006Z,19.50
2022-09-11T20:04:57.393Z,20.10
2022-09-11T20:07:22.193Z,18.42
2022-09-11T20:09:45.669Z,15.68
2022-09-11T20:12:09.451Z,15.63
2022-09-11T20:14:33.008Z,16.05
2022-09-11T20:16:56.391Z,15.65
2022-09-11T20:19:20.598Z,17.52
2022-09-11T20:21:44.422Z,19.35
2022-09-11T20:24:09.420Z,15.32
2022-09-11T20:26:33.570Z,14.90
2022-09-11T20:29:00.580Z,15.18
2022-09-11T20:31:26.841Z,15.75
2022-09-11T20:33:50.658Z,14.77
2022-09-11T20:36:14.803Z,17.98
2022-09-11T20:38:38.475Z,17.08
2022-09-11T20:41:07.991Z,17.58
2022-09-11T20:43:31.640Z,18.23
2022-09-11T20:45:56.211Z,18.65
2022-09-11T20:48:19.787Z,17.48
2022-09-11T20:50:43.317Z,18.27
2022-09-11T20:53:07.186Z,17.65
2022-09-11T20:55:30.753Z,20.02
2022-09-11T20:57:56.081Z,19.25
2022-09-11T21:00:19.753Z,16.92
2022-09-11T21:02:43.630Z,19.65
2022-09-11T21:05:07.728Z,18.50
2022-09-11T21:07:32.316Z,19.65
2022-09-11T21:09:55.793Z,21.10
2022-09-11T21:12:19.220Z,19.55
2022-09-11T21:14:45.730Z,18.40
2022-09-11T21:17:09.195Z,20.27
2022-09-11T21:19:32.696Z,20.25
2022-09-11T21:21:56.155Z,21.17
2022-09-11T21:24:19.584Z,20.85
2022-09-11T21:26:43.249Z,20.67
2022-09-11T21:29:09.464Z,19.02
2022-09-11T21:31:35.990Z,19.08
2022-09-11T21:34:00.217Z,19.38
2022-09-11T21:36:24.082Z,16.92
2022-09-11T21:38:47.768Z,18.10
2022-09-11T21:41:13.719Z,17.42
2022-09-11T21:43:38.136Z,16.17
2022-09-11T21:46:02.027Z,15.68
2022-09-11T21:48:26.922Z,16.48
2022-09-11T21:50:50.653Z,16.75
2022-09-11T21:53:14.112Z,19.08
2022-09-11T21:55:39.266Z,19.33
2022-09-11T21:58:02.839Z,17.98
2022-09-11T22:00:26.469Z,20.05
2022-09-11T22:02:49.928Z,18.50
2022-09-11T22:05:15.048Z,19.58
2022-09-11T22:07:38.784Z,17.35
2022-09-11T22:10:02.341Z,15.93
2022-09-11T22:12:26.303Z,18.75
2022-09-11T22:14:51.126Z,17.13
2022-09-11T22:17:14.598Z,18.70
2022-09-11T22:19:38.149Z,18.27
2022-09-11T22:22:03.075Z,17.13
2022-09-11T22:24:29.751Z,18.90
2022-09-11T22:26:53.223Z,18.65
2022-09-11T22:29:16.980Z,19.33
2022-09-11T22:31:41.440Z,17.73
2022-09-11T22:34:04.880Z,20.58
2022-09-11T22:36:30.508Z,18.88
2022-09-11T22:38:56.212Z,18.63
2022-09-11T22:41:19.933Z,19.25
2022-09-11T22:43:43.547Z,20.15
2022-09-11T22:46:07.564Z,18.17
2022-09-11T22:48:31.146Z,19.80
2022-09-11T22:50:57.011Z,19.38
2022-09-11T22:53:20.756Z,19.17
2022-09-11T22:55:46.780Z,20.38
2022-09-11T22:58:10.256Z,18.98
2022-09-11T23:00:34.024Z,19.95
2022-09-11T23:02:57.480Z,18.35
2022-09-11T23:05:38.449Z,19.08
2022-09-11T23:08:02.191Z,20.48
2022-09-11T23:10:25.664Z,18.90
2022-09-11T23:12:50.789Z,18.85
2022-09-11T23:15:14.198Z,20.42
2022-09-11T23:17:37.671Z,20.23
2022-09-11T23:20:01.390Z,19.15
2022-09-11T23:22:25.169Z,20.70
2022-09-11T23:24:48.634Z,18.10
2022-09-11T23:27:12.142Z,17.35
2022-09-11T23:29:40.145Z,22.00
2022-09-11T23:32:04.219Z,20.30
2022-09-11T23:34:27.675Z,19.70
2022-09-11T23:36:51.045Z,23.45
2022-09-11T23:39:14.716Z,24.75
2022-09-11T23:41:38.174Z,21.80
2022-09-11T23:44:03.155Z,24.95
2022-09-11T23:46:28.373Z,22.67
2022-09-11T23:48:51.818Z,23.65
2022-09-11T23:51:16.142Z,25.52
2022-09-11T23:53:43.343Z,22.60
2022-09-11T23:56:07.723Z,26.98
2022-09-11T23:58:31.179Z,24.10
